TimeEST,TemperatureF,Dew PointF,Humidity,Sea Level PressureIn,VisibilityMPH,Wind Direction,Wind SpeedMPH,Gust SpeedMPH,PrecipitationIn,Events,Conditions,WindDirDegrees,DateUTC
12:53 AM,24.1,19.9,84,30.28,10.0,NNE,3.5,-,N/A,,Clear,20,2012-12-07 05:53:00
1:53 AM,26.1,19.9,78,30.28,10.0,Calm,Calm,-,N/A,,Clear,0,2012-12-07 06:53:00
2:53 AM,27.0,21.0,78,30.27,10.0,Calm,Calm,-,N/A,,Clear,0,2012-12-07 07:53:00
3:53 AM,27.0,21.0,78,30.25,10.0,Calm,Calm,-,N/A,,Clear,0,2012-12-07 08:53:00
4:53 AM,25.0,19.9,81,30.23,10.0,Calm,Calm,-,N/A,,Clear,0,2012-12-07 09:53:00
5:42 AM,26.6,21.2,80,30.24,10.0,Calm,Calm,-,N/A,,Mostly Cloudy,0,2012-12-07 10:42:00
5:53 AM,28.0,23.0,81,30.24,10.0,Calm,Calm,-,N/A,,Overcast,0,2012-12-07 10:53:00
6:53 AM,30.0,25.0,82,30.22,10.0,North,3.5,-,N/A,,Overcast,350,2012-12-07 11:53:00
7:53 AM,32.0,26.1,79,30.24,10.0,Calm,Calm,-,N/A,,Overcast,0,2012-12-07 12:53:00
8:53 AM,36.0,27.0,70,30.23,10.0,NNE,3.5,-,N/A,,Mostly Cloudy,30,2012-12-07 13:53:00
9:53 AM,41.0,30.9,67,30.22,10.0,Calm,Calm,-,N/A,,Mostly Cloudy,0,2012-12-07 14:53:00
10:53 AM,43.0,32.0,65,30.19,10.0,SSE,3.5,-,N/A,,Overcast,160,2012-12-07 15:53:00
11:53 AM,44.1,34.0,68,30.17,10.0,SE,4.6,-,N/A,,Overcast,140,2012-12-07 16:53:00
12:53 PM,44.1,35.1,71,30.15,10.0,Calm,Calm,-,N/A,,Overcast,0,2012-12-07 17:53:00
1:53 PM,43.0,36.0,76,30.12,6.0,Calm,Calm,-,0.03,Rain,Light Rain,0,2012-12-07 18:53:00
2:53 PM,43.0,39.0,86,30.11,7.0,Calm,Calm,-,0.00,,Overcast,0,2012-12-07 19:53:00
3:53 PM,43.0,39.0,86,30.10,7.0,Calm,Calm,-,0.00,,Overcast,0,2012-12-07 20:53:00
4:53 PM,44.1,39.9,85,30.09,6.0,Calm,Calm,-,0.00,Rain,Light Rain,0,2012-12-07 21:53:00
5:27 PM,44.6,42.8,93,30.09,6.0,South,4.6,-,0.01,Rain,Light Rain,170,2012-12-07 22:27:00
5:53 PM,46.0,42.1,86,30.08,10.0,South,4.6,-,0.01,Rain,Light Rain,190,2012-12-07 22:53:00
6:48 PM,46.4,42.8,87,30.09,10.0,SSW,3.5,-,0.00,,Overcast,210,2012-12-07 23:48:00
6:53 PM,46.9,43.0,86,30.09,10.0,SSW,3.5,-,0.00,,Overcast,210,2012-12-07 23:53:00
7:50 PM,46.4,42.8,87,30.08,10.0,SSW,3.5,-,0.00,,Overcast,210,2012-12-08 00:50:00
7:53 PM,46.9,43.0,86,30.08,10.0,Calm,Calm,-,0.00,,Overcast,0,2012-12-08 00:53:00
8:53 PM,46.9,44.1,90,30.07,5.0,Calm,Calm,-,0.00,Rain,Light Rain,0,2012-12-08 01:53:00
9:10 PM,46.4,44.6,93,30.07,6.0,Calm,Calm,-,0.00,Rain,Light Rain,0,2012-12-08 02:10:00
9:29 PM,46.4,44.6,93,30.07,6.0,Calm,Calm,-,0.00,,Overcast,0,2012-12-08 02:29:00
9:53 PM,46.9,44.1,90,30.07,4.0,Calm,Calm,-,0.00,Rain,Light Rain,0,2012-12-08 02:53:00
10:53 PM,46.9,44.1,90,30.06,5.0,Calm,Calm,-,0.00,,Overcast,0,2012-12-08 03:53:00
11:16 PM,46.4,42.8,87,30.04,2.5,Calm,Calm,-,N/A,,Overcast,0,2012-12-08 04:16:00
11:41 PM,46.4,44.6,93,30.04,1.8,Calm,Calm,-,N/A,,Overcast,0,2012-12-08 04:41:00
11:53 PM,46.0,43.0,89,30.03,1.0,Calm,Calm,-,N/A,,Overcast,0,2012-12-08 04:53:00